Terminal Aerodrome Forecast
Issued by NWS

Home | Current Version | Previous Version | Text Only | Print | Product List | Glossary On
Versions: 1 2 3 4 5 6 7 8 9 10 11 12 13 14 15
000
FTUS46 KSEW 120500
TAFOLM
TAF
KOLM 120540Z 1206/1306 VRB03KT P6SM BKN200
      TEMPO 1212/1216 SCT003 BKN200
     FM122100 36005KT P6SM SKC
     FM130400 VRB03KT P6SM SKC=

USA.gov is the U.S. government's official web portal to all federal, state and local government web resources and services.